createdAt,value
2023-04-15T00:00:01.230Z,1009.29
2023-04-15T00:01:01.569Z,1009.27
2023-04-15T00:02:02.068Z,1009.24
2023-04-15T00:03:02.507Z,1009.27
2023-04-15T00:04:02.756Z,1009.23
2023-04-15T00:05:03.013Z,1009.25
2023-04-15T00:06:03.340Z,1009.22
2023-04-15T00:07:03.680Z,1009.21
2023-04-15T00:08:04.028Z,1009.21
2023-04-15T00:09:04.446Z,1009.23
2023-04-15T00:10:04.744Z,1009.22
2023-04-15T00:11:05.088Z,1009.22
2023-04-15T00:12:05.440Z,1009.19
2023-04-15T00:13:05.786Z,1009.23
2023-04-15T00:14:06.183Z,1009.20
2023-04-15T00:15:06.493Z,1009.21
2023-04-15T00:16:06.833Z,1009.22
2023-04-15T00:17:07.179Z,1009.22
2023-04-15T00:18:07.521Z,1009.16
2023-04-15T00:19:07.868Z,1009.22
2023-04-15T00:20:08.209Z,1009.20
2023-04-15T00:21:08.553Z,1009.21
2023-04-15T00:22:08.888Z,1009.19
2023-04-15T00:23:09.232Z,1009.17
2023-04-15T00:24:09.596Z,1009.17
2023-04-15T00:25:09.918Z,1009.17
2023-04-15T00:26:10.288Z,1009.13
2023-04-15T00:27:10.621Z,1009.12
2023-04-15T00:28:10.960Z,1009.07
2023-04-15T00:29:11.313Z,1009.10
2023-04-15T00:30:11.634Z,1009.13
2023-04-15T00:31:12.013Z,1009.11
2023-04-15T00:32:12.327Z,1009.10
2023-04-15T00:33:12.663Z,1009.07
2023-04-15T00:34:13.015Z,1009.08
2023-04-15T00:35:13.347Z,1009.14
2023-04-15T00:36:13.693Z,1009.07
2023-04-15T00:37:14.014Z,1009.08
2023-04-15T00:38:14.362Z,1009.09
2023-04-15T00:39:14.719Z,1009.09
2023-04-15T00:40:15.082Z,1009.07
2023-04-15T00:41:15.419Z,1009.04
2023-04-15T00:42:15.753Z,1009.04
2023-04-15T00:43:16.097Z,1009.06
2023-04-15T00:44:16.460Z,1009.04
2023-04-15T00:45:16.828Z,1009.03
2023-04-15T00:46:17.555Z,1009.07
2023-04-15T00:47:17.506Z,1009.03
2023-04-15T00:48:17.846Z,1009.06
2023-04-15T00:49:18.212Z,1009.03
2023-04-15T00:50:18.552Z,1009.04
2023-04-15T00:51:18.892Z,1008.98
2023-04-15T00:52:19.235Z,1008.97
2023-04-15T00:53:19.584Z,1008.94
2023-04-15T00:54:19.954Z,1008.94
2023-04-15T00:55:20.293Z,1008.93
2023-04-15T00:56:20.621Z,1008.98
2023-04-15T00:57:20.965Z,1008.98
2023-04-15T00:58:21.297Z,1008.96
2023-04-15T00:59:21.665Z,1008.93
2023-04-15T01:00:21.975Z,1008.90
2023-04-15T01:01:22.362Z,1008.92
2023-04-15T01:02:22.829Z,1008.89
2023-04-15T01:03:23.171Z,1008.90
2023-04-15T01:04:23.447Z,1008.95
2023-04-15T01:05:23.722Z,1008.90
2023-04-15T01:06:24.107Z,1008.98
2023-04-15T01:07:24.444Z,1008.98
2023-04-15T01:08:24.789Z,1008.95
2023-04-15T01:09:25.155Z,1008.96
2023-04-15T01:10:25.460Z,1008.94
2023-04-15T01:11:25.796Z,1008.97
2023-04-15T01:12:26.147Z,1008.94
2023-04-15T01:13:26.469Z,1008.90
2023-04-15T01:14:26.849Z,1008.93
2023-04-15T01:15:27.201Z,1008.92
2023-04-15T01:16:27.677Z,1008.91
2023-04-15T01:17:27.937Z,1008.90
2023-04-15T01:18:28.269Z,1008.91
2023-04-15T01:19:28.579Z,1008.93
2023-04-15T01:20:29.197Z,1008.95
2023-04-15T01:21:29.304Z,1008.92
2023-04-15T01:22:29.648Z,1008.92
2023-04-15T01:23:29.980Z,1008.92
2023-04-15T01:24:30.320Z,1008.91
2023-04-15T01:25:30.678Z,1008.95
2023-04-15T01:26:31.022Z,1008.93
2023-04-15T01:27:32.091Z,1008.93
2023-04-15T01:28:31.702Z,1008.90
2023-04-15T01:29:32.040Z,1008.85
2023-04-15T01:30:32.447Z,1008.86
2023-04-15T01:31:32.768Z,1008.92
2023-04-15T01:32:33.056Z,1008.88
2023-04-15T01:33:33.392Z,1008.87
2023-04-15T01:34:35.641Z,1008.83
2023-04-15T01:35:34.118Z,1008.85
2023-04-15T01:36:34.454Z,1008.86
2023-04-15T01:37:34.804Z,1008.85
2023-04-15T01:38:35.168Z,1008.80
2023-04-15T01:39:35.528Z,1008.79
2023-04-15T01:40:35.872Z,1008.76
2023-04-15T01:41:36.215Z,1008.79
2023-04-15T01:42:36.578Z,1008.76
2023-04-15T01:43:36.913Z,1008.76
2023-04-15T01:44:37.254Z,1008.77
2023-04-15T01:45:37.620Z,1008.74
2023-04-15T01:46:38.091Z,1008.77
2023-04-15T01:47:38.304Z,1008.76
2023-04-15T01:48:38.626Z,1008.71
2023-04-15T01:49:38.971Z,1008.71
2023-04-15T01:50:39.333Z,1008.70
2023-04-15T01:51:39.658Z,1008.67
2023-04-15T01:52:39.995Z,1008.70
2023-04-15T01:53:40.361Z,1008.72
2023-04-15T01:54:40.728Z,1008.69
2023-04-15T01:55:41.071Z,1008.63
2023-04-15T01:56:41.440Z,1008.66
2023-04-15T01:57:41.771Z,1008.66
2023-04-15T01:58:42.130Z,1008.65
2023-04-15T01:59:42.478Z,1008.62
2023-04-15T02:00:42.867Z,1008.62
2023-04-15T02:01:43.185Z,1008.61
2023-04-15T02:02:43.646Z,1008.64
2023-04-15T02:03:43.962Z,1008.61
2023-04-15T02:04:44.237Z,1008.63
2023-04-15T02:05:44.582Z,1008.59
2023-04-15T02:06:44.924Z,1008.60
2023-04-15T02:07:45.254Z,1008.54
2023-04-15T02:08:45.598Z,1008.55
2023-04-15T02:09:45.937Z,1008.57
2023-04-15T02:10:46.307Z,1008.58
2023-04-15T02:11:46.635Z,1008.58
2023-04-15T02:12:47.001Z,1008.56
2023-04-15T02:13:47.341Z,1008.61
2023-04-15T02:14:47.683Z,1008.58
2023-04-15T02:15:48.059Z,1008.60
2023-04-15T02:16:48.470Z,1008.60
2023-04-15T02:17:48.798Z,1008.59
2023-04-15T02:18:49.110Z,1008.64
2023-04-15T02:19:49.460Z,1008.61
2023-04-15T02:20:49.811Z,1008.62
2023-04-15T02:21:50.143Z,1008.62
2023-04-15T02:22:50.482Z,1008.58
2023-04-15T02:23:52.293Z,1008.58
2023-04-15T02:24:51.195Z,1008.59
2023-04-15T02:25:53.949Z,1008.58
2023-04-15T02:26:51.888Z,1008.60
2023-04-15T02:27:52.229Z,1008.56
2023-04-15T02:28:52.573Z,1008.56
2023-04-15T02:29:52.928Z,1008.58
2023-04-15T02:30:53.552Z,1008.62
2023-04-15T02:31:53.671Z,1008.53
2023-04-15T02:32:54.068Z,1008.56
2023-04-15T02:33:54.340Z,1008.53
2023-04-15T02:34:54.680Z,1008.55
2023-04-15T02:35:55.036Z,1008.58
2023-04-15T02:36:55.384Z,1008.55
2023-04-15T02:37:55.732Z,1008.61
2023-04-15T02:38:56.071Z,1008.60
2023-04-15T02:39:56.421Z,1008.58
2023-04-15T02:40:56.774Z,1008.62
2023-04-15T02:41:57.108Z,1008.63
2023-04-15T02:42:57.448Z,1008.63
2023-04-15T02:43:57.813Z,1008.68
2023-04-15T02:44:58.141Z,1008.60
2023-04-15T02:45:58.492Z,1008.68
2023-04-15T02:46:58.824Z,1008.62
2023-04-15T02:47:59.214Z,1008.64
2023-04-15T02:48:59.827Z,1008.61
2023-04-15T02:49:59.861Z,1008.65
2023-04-15T02:51:00.248Z,1008.60
2023-04-15T02:52:00.602Z,1008.65
2023-04-15T02:53:00.939Z,1008.66
2023-04-15T02:54:01.276Z,1008.63
2023-04-15T02:55:01.652Z,1008.63
2023-04-15T02:56:02.037Z,1008.63
2023-04-15T02:57:02.327Z,1008.61
2023-04-15T02:58:02.667Z,1008.63
2023-04-15T02:59:03.144Z,1008.63
2023-04-15T03:00:03.364Z,1008.60
2023-04-15T03:01:03.744Z,1008.64
2023-04-15T03:02:04.066Z,1008.59
2023-04-15T03:03:04.595Z,1008.59
2023-04-15T03:04:04.829Z,1008.56
2023-04-15T03:05:05.098Z,1008.57
2023-04-15T03:06:05.459Z,1008.60
2023-04-15T03:07:05.830Z,1008.58
2023-04-15T03:08:06.114Z,1008.60
2023-04-15T03:09:06.480Z,1008.59
2023-04-15T03:10:06.831Z,1008.59
2023-04-15T03:11:07.194Z,1008.58
2023-04-15T03:12:07.493Z,1008.60
2023-04-15T03:13:07.837Z,1008.67
2023-04-15T03:14:08.185Z,1008.60
2023-04-15T03:15:08.525Z,1008.62
2023-04-15T03:16:08.925Z,1008.61
2023-04-15T03:17:09.192Z,1008.61
2023-04-15T03:18:09.532Z,1008.65
2023-04-15T03:19:09.911Z,1008.61
2023-04-15T03:20:10.265Z,1008.61
2023-04-15T03:21:10.586Z,1008.60
2023-04-15T03:22:10.914Z,1008.58
2023-04-15T03:23:11.267Z,1008.59
2023-04-15T03:24:11.599Z,1008.61
2023-04-15T03:25:11.939Z,1008.61
2023-04-15T03:26:12.323Z,1008.61
2023-04-15T03:27:12.640Z,1008.61
2023-04-15T03:28:12.988Z,1008.63
2023-04-15T03:29:13.347Z,1008.59
2023-04-15T03:30:13.679Z,1008.63
2023-04-15T03:31:14.090Z,1008.62
2023-04-15T03:32:14.404Z,1008.59
2023-04-15T03:33:14.741Z,1008.61
2023-04-15T03:34:15.116Z,1008.60
2023-04-15T03:35:15.429Z,1008.57
2023-04-15T03:36:15.804Z,1008.56
2023-04-15T03:37:16.137Z,1008.59
2023-04-15T03:38:16.473Z,1008.55
2023-04-15T03:39:16.802Z,1008.59
2023-04-15T03:40:17.167Z,1008.55
2023-04-15T03:41:17.530Z,1008.57
2023-04-15T03:42:17.860Z,1008.54
2023-04-15T03:43:18.202Z,1008.56
2023-04-15T03:44:18.540Z,1008.55
2023-04-15T03:45:18.899Z,1008.59
2023-04-15T03:46:19.270Z,1008.55
2023-04-15T03:47:19.596Z,1008.54
2023-04-15T03:48:19.971Z,1008.54
2023-04-15T03:49:20.269Z,1008.60
2023-04-15T03:50:20.634Z,1008.54
2023-04-15T03:51:21.004Z,1008.53
2023-04-15T03:52:21.361Z,1008.61
2023-04-15T03:53:21.703Z,1008.57
2023-04-15T03:54:22.030Z,1008.56
2023-04-15T03:55:22.379Z,1008.57
2023-04-15T03:56:22.757Z,1008.54
2023-04-15T03:57:23.087Z,1008.55
2023-04-15T03:58:23.448Z,1008.61
2023-04-15T03:59:23.806Z,1008.58
2023-04-15T04:00:24.167Z,1008.64
2023-04-15T04:01:24.547Z,1008.62
2023-04-15T04:02:24.886Z,1008.63
2023-04-15T04:03:25.272Z,1008.62
2023-04-15T04:04:25.423Z,1008.62
2023-04-15T04:05:25.759Z,1008.60
2023-04-15T04:06:26.005Z,1008.59
2023-04-15T04:07:26.291Z,1008.57
2023-04-15T04:08:26.577Z,1008.62
2023-04-15T04:09:26.849Z,1008.57
2023-04-15T04:10:27.132Z,1008.57
2023-04-15T04:11:27.451Z,1008.55
2023-04-15T04:12:27.703Z,1008.59
2023-04-15T04:13:27.977Z,1008.54
2023-04-15T04:14:28.270Z,1008.54
2023-04-15T04:15:28.593Z,1008.56
2023-04-15T04:16:28.929Z,1008.54
2023-04-15T04:17:28.917Z,1008.51
2023-04-15T04:18:29.205Z,1008.54
2023-04-15T04:19:29.364Z,1008.51
2023-04-15T04:20:29.691Z,1008.54
2023-04-15T04:21:29.983Z,1008.54
2023-04-15T04:22:30.232Z,1008.54
2023-04-15T04:23:30.535Z,1008.53
2023-04-15T04:24:30.693Z,1008.63
2023-04-15T04:25:30.995Z,1008.62
2023-04-15T04:26:31.174Z,1008.62
2023-04-15T04:27:31.437Z,1008.60
2023-04-15T04:28:31.733Z,1008.64
2023-04-15T04:29:32.025Z,1008.64
2023-04-15T04:30:32.339Z,1008.68
2023-04-15T04:31:32.662Z,1008.66
2023-04-15T04:32:32.951Z,1008.65
2023-04-15T04:33:33.178Z,1008.68
2023-04-15T04:34:33.345Z,1008.71
2023-04-15T04:35:33.505Z,1008.76
2023-04-15T04:36:33.689Z,1008.77
2023-04-15T04:37:33.942Z,1008.72
2023-04-15T04:38:34.248Z,1008.72
2023-04-15T04:39:34.536Z,1008.72
2023-04-15T04:40:34.841Z,1008.72
2023-04-15T04:41:35.010Z,1008.71
2023-04-15T04:42:36.018Z,1008.75
2023-04-15T04:43:35.332Z,1008.76
2023-04-15T04:44:35.632Z,1008.75
2023-04-15T04:45:35.852Z,1008.76
2023-04-15T04:46:36.118Z,1008.76
2023-04-15T04:47:36.402Z,1008.71
2023-04-15T04:48:36.686Z,1008.73
2023-04-15T04:49:36.977Z,1008.77
2023-04-15T04:50:37.298Z,1008.75
2023-04-15T04:51:37.508Z,1008.71
2023-04-15T04:52:37.776Z,1008.73
2023-04-15T04:53:37.933Z,1008.73
2023-04-15T04:54:38.091Z,1008.74
2023-04-15T04:55:38.263Z,1008.74
2023-04-15T04:56:38.585Z,1008.72
2023-04-15T04:57:38.738Z,1008.70
2023-04-15T04:58:38.922Z,1008.72
2023-04-15T04:59:39.082Z,1008.74
2023-04-15T05:00:39.254Z,1008.69
2023-04-15T05:01:39.512Z,1008.72
2023-04-15T05:02:39.862Z,1008.72
2023-04-15T05:03:40.065Z,1008.70
2023-04-15T05:04:40.190Z,1008.71
2023-04-15T05:05:40.361Z,1008.67
2023-04-15T05:06:40.577Z,1008.68
2023-04-15T05:07:40.724Z,1008.67
2023-04-15T05:08:40.884Z,1008.67
2023-04-15T05:09:41.059Z,1008.73
2023-04-15T05:10:41.233Z,1008.75
2023-04-15T05:11:41.450Z,1008.70
2023-04-15T05:12:41.585Z,1008.77
2023-04-15T05:13:41.762Z,1008.78
2023-04-15T05:14:41.930Z,1008.85
2023-04-15T05:15:42.154Z,1008.79
2023-04-15T05:16:42.449Z,1008.79
2023-04-15T05:17:42.630Z,1008.79
2023-04-15T05:18:42.754Z,1008.79
2023-04-15T05:19:42.955Z,1008.80
2023-04-15T05:20:43.112Z,1008.80
2023-04-15T05:21:43.304Z,1008.79
2023-04-15T05:22:43.451Z,1008.74
2023-04-15T05:23:43.607Z,1008.75
2023-04-15T05:24:43.799Z,1008.78
2023-04-15T05:25:43.960Z,1008.77
2023-04-15T05:26:44.160Z,1008.79
2023-04-15T05:27:44.308Z,1008.81
2023-04-15T05:28:44.492Z,1008.83
2023-04-15T05:29:44.670Z,1008.82
2023-04-15T05:30:44.845Z,1008.77
2023-04-15T05:31:45.568Z,1008.76
2023-04-15T05:32:46.130Z,1008.70
2023-04-15T05:33:45.352Z,1008.71
2023-04-15T05:34:45.653Z,1008.78
2023-04-15T05:35:45.956Z,1008.83
2023-04-15T05:36:46.152Z,1008.78
2023-04-15T05:37:46.303Z,1008.84
2023-04-15T05:38:46.622Z,1008.89
2023-04-15T05:39:52.905Z,1008.93
2023-04-15T05:40:47.067Z,1008.95
2023-04-15T05:41:47.287Z,1008.99
2023-04-15T05:42:47.670Z,1008.94
2023-04-15T05:43:47.690Z,1008.94
2023-04-15T05:44:47.978Z,1008.94
2023-04-15T05:45:48.232Z,1008.95
2023-04-15T05:46:48.328Z,1009.00
2023-04-15T05:47:48.543Z,1008.88
2023-04-15T05:48:48.665Z,1008.89
2023-04-15T05:49:48.840Z,1008.89
2023-04-15T05:50:49.061Z,1008.81
2023-04-15T05:51:49.204Z,1008.82
2023-04-15T05:52:49.500Z,1008.78
2023-04-15T05:53:49.693Z,1008.78
2023-04-15T05:54:49.979Z,1008.76
2023-04-15T05:55:50.266Z,1008.87
2023-04-15T05:56:50.552Z,1008.86
2023-04-15T05:57:50.727Z,1008.93
2023-04-15T05:58:52.520Z,1008.94
2023-04-15T05:59:51.068Z,1008.91
2023-04-15T06:00:51.292Z,1008.93
2023-04-15T06:01:51.485Z,1008.88
2023-04-15T06:02:51.791Z,1008.85
2023-04-15T06:03:52.143Z,1008.87
2023-04-15T06:04:52.139Z,1008.86
2023-04-15T06:05:52.305Z,1008.91
2023-04-15T06:06:52.494Z,1008.92
2023-04-15T06:07:52.675Z,1008.91
2023-04-15T06:08:52.840Z,1008.96
2023-04-15T06:09:53.140Z,1008.94
2023-04-15T06:10:53.359Z,1008.94
2023-04-15T06:11:53.617Z,1008.99
2023-04-15T06:12:53.914Z,1008.98
2023-04-15T06:13:54.347Z,1009.00
2023-04-15T06:14:54.512Z,1008.98
2023-04-15T06:15:54.710Z,1008.99
2023-04-15T06:16:54.883Z,1009.04
2023-04-15T06:17:55.192Z,1009.05
2023-04-15T06:18:55.323Z,1009.02
2023-04-15T06:19:55.644Z,1008.99
2023-04-15T06:20:55.944Z,1008.96
2023-04-15T06:21:56.222Z,1008.98
2023-04-15T06:22:56.510Z,1008.99
2023-04-15T06:23:56.706Z,1009.01
2023-04-15T06:24:56.880Z,1009.00
2023-04-15T06:25:57.049Z,1009.01
2023-04-15T06:26:57.212Z,1008.98
2023-04-15T06:27:57.393Z,1009.01
2023-04-15T06:28:57.566Z,1009.04
2023-04-15T06:29:57.746Z,1008.98
2023-04-15T06:30:57.953Z,1008.92
2023-04-15T06:31:58.157Z,1009.06
2023-04-15T06:32:58.315Z,1009.05
2023-04-15T06:33:58.477Z,1009.07
2023-04-15T06:34:58.651Z,1009.08
2023-04-15T06:35:58.903Z,1009.07
2023-04-15T06:36:59.003Z,1009.09
2023-04-15T06:37:59.185Z,1009.10
2023-04-15T06:38:59.588Z,1009.13
2023-04-15T06:39:59.527Z,1009.13
2023-04-15T06:40:59.736Z,1009.11
2023-04-15T06:41:59.872Z,1009.16
2023-04-15T06:43:00.066Z,1009.14
2023-04-15T06:44:00.345Z,1009.17
2023-04-15T06:45:00.623Z,1009.20
2023-04-15T06:46:00.862Z,1009.16
2023-04-15T06:47:00.983Z,1009.16
2023-04-15T06:48:01.234Z,1009.16
2023-04-15T06:49:01.557Z,1009.18
2023-04-15T06:50:01.549Z,1009.15
2023-04-15T06:51:01.774Z,1009.13
2023-04-15T06:52:01.901Z,1009.18
2023-04-15T06:53:02.108Z,1009.18
2023-04-15T06:54:02.277Z,1009.20
2023-04-15T06:55:02.549Z,1009.15
2023-04-15T06:56:02.752Z,1009.17
2023-04-15T06:57:03.046Z,1009.21
2023-04-15T06:58:03.323Z,1009.18
2023-04-15T06:59:03.591Z,1009.26
2023-04-15T07:00:03.817Z,1009.26
2023-04-15T07:01:04.017Z,1009.25
2023-04-15T07:02:04.219Z,1009.22
2023-04-15T07:03:04.341Z,1009.19
2023-04-15T07:04:04.650Z,1009.21
2023-04-15T07:05:04.767Z,1009.23
2023-04-15T07:06:04.974Z,1009.20
2023-04-15T07:07:05.148Z,1009.23
2023-04-15T07:08:05.329Z,1009.22
2023-04-15T07:09:05.957Z,1009.27
2023-04-15T07:10:05.810Z,1009.20
2023-04-15T07:11:06.119Z,1009.25
2023-04-15T07:12:06.292Z,1009.29
2023-04-15T07:13:06.468Z,1009.30
2023-04-15T07:14:06.645Z,1009.34
2023-04-15T07:15:06.882Z,1009.34
2023-04-15T07:16:07.066Z,1009.35
2023-04-15T07:17:07.391Z,1009.32
2023-04-15T07:18:07.518Z,1009.33
2023-04-15T07:19:07.698Z,1009.36
2023-04-15T07:20:07.987Z,1009.37
2023-04-15T07:21:08.183Z,1009.36
2023-04-15T07:22:08.461Z,1009.39
2023-04-15T07:23:08.650Z,1009.39
2023-04-15T07:24:08.837Z,1009.49
2023-04-15T07:25:08.992Z,1009.52
2023-04-15T07:26:09.219Z,1009.54
2023-04-15T07:27:09.479Z,1009.50
2023-04-15T07:28:09.667Z,1009.52
2023-04-15T07:29:09.944Z,1009.55
2023-04-15T07:30:10.121Z,1009.56
2023-04-15T07:31:10.335Z,1009.54
2023-04-15T07:32:10.625Z,1009.55
2023-04-15T07:33:10.796Z,1009.54
2023-04-15T07:34:11.090Z,1009.57
2023-04-15T07:35:11.386Z,1009.54
2023-04-15T07:36:11.596Z,1009.49
2023-04-15T07:37:11.743Z,1009.53
2023-04-15T07:38:11.941Z,1009.51
2023-04-15T07:39:12.303Z,1009.45
2023-04-15T07:40:12.431Z,1009.55
2023-04-15T07:41:12.761Z,1009.49
2023-04-15T07:42:12.922Z,1009.47
2023-04-15T07:43:13.099Z,1009.43
2023-04-15T07:44:13.283Z,1009.51
2023-04-15T07:45:13.454Z,1009.53
2023-04-15T07:46:13.799Z,1009.52
2023-04-15T07:47:13.937Z,1009.56
2023-04-15T07:48:14.126Z,1009.55
2023-04-15T07:49:14.303Z,1009.50
2023-04-15T07:50:14.474Z,1009.56
2023-04-15T07:51:14.781Z,1009.51
2023-04-15T07:52:14.952Z,1009.54
2023-04-15T07:53:15.278Z,1009.54
2023-04-15T07:54:15.435Z,1009.53
2023-04-15T07:55:15.733Z,1009.49
2023-04-15T07:56:16.048Z,1009.49
2023-04-15T07:57:16.216Z,1009.58
2023-04-15T07:58:16.538Z,1009.61
2023-04-15T07:59:16.689Z,1009.55
2023-04-15T08:00:16.997Z,1009.57
2023-04-15T08:01:17.307Z,1009.56
2023-04-15T08:02:17.543Z,1009.57
2023-04-15T08:03:17.674Z,1009.62
2023-04-15T08:04:18.094Z,1009.60
2023-04-15T08:05:18.187Z,1009.64
2023-04-15T08:06:18.464Z,1009.70
2023-04-15T08:07:18.626Z,1009.66
2023-04-15T08:08:18.934Z,1009.69
2023-04-15T08:09:19.105Z,1009.68
2023-04-15T08:10:19.398Z,1009.68
2023-04-15T08:11:19.732Z,1009.68
2023-04-15T08:12:20.020Z,1009.67
2023-04-15T08:13:20.330Z,1009.65
2023-04-15T08:14:20.594Z,1009.71
2023-04-15T08:15:20.794Z,1009.69
2023-04-15T08:16:21.170Z,1009.72
2023-04-15T08:17:21.324Z,1009.69
2023-04-15T08:18:21.453Z,1009.72
2023-04-15T08:19:21.626Z,1009.76
2023-04-15T08:20:22.023Z,1009.72
2023-04-15T08:21:22.247Z,1009.72
2023-04-15T08:22:22.517Z,1009.78
2023-04-15T08:23:22.731Z,1009.78
2023-04-15T08:24:22.885Z,1009.81
2023-04-15T08:25:23.196Z,1009.79
2023-04-15T08:26:23.512Z,1009.83
2023-04-15T08:27:23.787Z,1009.82
2023-04-15T08:28:24.088Z,1009.81
2023-04-15T08:29:24.379Z,1009.84
2023-04-15T08:30:24.692Z,1009.79
2023-04-15T08:31:24.888Z,1009.80
2023-04-15T08:32:25.092Z,1009.84
2023-04-15T08:33:25.349Z,1009.82
2023-04-15T08:34:25.520Z,1009.77
2023-04-15T08:35:25.818Z,1009.79
2023-04-15T08:36:26.135Z,1009.80
2023-04-15T08:37:26.299Z,1009.83
2023-04-15T08:38:26.601Z,1009.88
2023-04-15T08:39:26.900Z,1009.87
2023-04-15T08:40:27.088Z,1009.89
2023-04-15T08:41:27.414Z,1009.92
2023-04-15T08:42:27.669Z,1009.88
2023-04-15T08:43:27.972Z,1009.88
2023-04-15T08:44:28.261Z,1009.89
2023-04-15T08:45:28.447Z,1009.90
2023-04-15T08:46:28.816Z,1009.87
2023-04-15T08:47:28.990Z,1009.92
2023-04-15T08:48:29.119Z,1009.96
2023-04-15T08:49:29.298Z,1009.97
2023-04-15T08:50:29.458Z,1009.92
2023-04-15T08:51:29.767Z,1009.93
2023-04-15T08:52:29.925Z,1009.93
2023-04-15T08:53:30.233Z,1009.93
2023-04-15T08:54:30.520Z,1009.92
2023-04-15T08:55:30.844Z,1009.93
2023-04-15T08:56:31.161Z,1009.95
2023-04-15T08:57:31.423Z,1009.91
2023-04-15T08:58:31.713Z,1010.00
2023-04-15T08:59:32.019Z,1009.91
2023-04-15T09:00:32.322Z,1009.96
2023-04-15T09:01:32.570Z,1009.93
2023-04-15T09:02:32.796Z,1009.96
2023-04-15T09:03:33.035Z,1009.94
2023-04-15T09:04:33.160Z,1009.99
2023-04-15T09:05:33.325Z,1009.99
2023-04-15T09:06:33.662Z,1010.00
2023-04-15T09:07:33.932Z,1010.01
2023-04-15T09:08:34.251Z,1010.05
2023-04-15T09:09:34.532Z,1010.05
2023-04-15T09:10:34.819Z,1010.09
2023-04-15T09:11:35.133Z,1010.09
2023-04-15T09:12:35.300Z,1010.12
2023-04-15T09:13:35.601Z,1010.11
2023-04-15T09:14:35.895Z,1010.14
2023-04-15T09:15:36.189Z,1010.14
2023-04-15T09:16:36.557Z,1010.14
2023-04-15T09:17:36.681Z,1010.12
2023-04-15T09:18:36.966Z,1010.14
2023-04-15T09:19:37.268Z,1010.16
2023-04-15T09:20:37.565Z,1010.14
2023-04-15T09:21:37.898Z,1010.15
2023-04-15T09:22:38.165Z,1010.22
2023-04-15T09:23:38.328Z,1010.17
2023-04-15T09:24:38.662Z,1010.20
2023-04-15T09:25:38.832Z,1010.24
2023-04-15T09:26:39.143Z,1010.23
2023-04-15T09:27:39.432Z,1010.21
2023-04-15T09:28:39.707Z,1010.24
2023-04-15T09:29:40.024Z,1010.23
2023-04-15T09:30:40.214Z,1010.22
2023-04-15T09:31:40.498Z,1010.21
2023-04-15T09:32:40.729Z,1010.23
2023-04-15T09:33:40.830Z,1010.19
2023-04-15T09:34:41.038Z,1010.22
2023-04-15T09:35:41.324Z,1010.26
2023-04-15T09:36:41.638Z,1010.21
2023-04-15T09:37:41.810Z,1010.26
2023-04-15T09:38:41.980Z,1010.24
2023-04-15T09:39:42.281Z,1010.24
2023-04-15T09:40:42.458Z,1010.29
2023-04-15T09:41:42.654Z,1010.29
2023-04-15T09:42:42.925Z,1010.30
2023-04-15T09:43:43.218Z,1010.29
2023-04-15T09:44:43.519Z,1010.31
2023-04-15T09:45:43.833Z,1010.35
2023-04-15T09:46:44.143Z,1010.38
2023-04-15T09:47:44.334Z,1010.32
2023-04-15T09:48:44.621Z,1010.26
2023-04-15T09:49:44.860Z,1010.30
2023-04-15T09:50:44.989Z,1010.30
2023-04-15T09:51:57.610Z,1010.33
2023-04-15T09:52:45.454Z,1010.34
2023-04-15T09:53:45.620Z,1010.28
2023-04-15T09:54:45.817Z,1010.29
2023-04-15T09:55:46.108Z,1010.32
2023-04-15T09:56:46.433Z,1010.25
2023-04-15T09:57:46.618Z,1010.28
2023-04-15T09:58:46.792Z,1010.34
2023-04-15T09:59:47.081Z,1010.28
2023-04-15T10:00:47.251Z,1010.32
2023-04-15T10:01:47.596Z,1010.33
2023-04-15T10:02:47.787Z,1010.30
2023-04-15T10:03:47.913Z,1010.31
2023-04-15T10:04:48.092Z,1010.30
2023-04-15T10:05:48.272Z,1010.32
2023-04-15T10:06:48.569Z,1010.29
2023-04-15T10:07:48.742Z,1010.29
2023-04-15T10:08:48.979Z,1010.29
2023-04-15T10:09:49.121Z,1010.33
2023-04-15T10:10:49.423Z,1010.31
2023-04-15T10:11:49.610Z,1010.30
2023-04-15T10:12:49.879Z,1010.35
2023-04-15T10:13:50.176Z,1010.30
2023-04-15T10:14:50.472Z,1010.35
2023-04-15T10:15:50.813Z,1010.37
2023-04-15T10:16:51.663Z,1010.38
2023-04-15T10:17:51.453Z,1010.39
2023-04-15T10:18:51.480Z,1010.41
2023-04-15T10:19:51.622Z,1010.38
2023-04-15T10:20:51.797Z,1010.49
2023-04-15T10:21:52.011Z,1010.45
2023-04-15T10:22:52.187Z,1010.49
2023-04-15T10:23:52.378Z,1010.52
2023-04-15T10:24:52.581Z,1010.51
2023-04-15T10:25:52.743Z,1010.52
2023-04-15T10:26:52.955Z,1010.52
2023-04-15T10:27:53.106Z,1010.56
2023-04-15T10:28:53.301Z,1010.46
2023-04-15T10:29:53.499Z,1010.52
2023-04-15T10:30:53.763Z,1010.52
2023-04-15T10:31:53.843Z,1010.53
2023-04-15T10:32:54.041Z,1010.49
2023-04-15T10:33:54.191Z,1010.55
2023-04-15T10:34:54.690Z,1010.56
2023-04-15T10:35:54.584Z,1010.59
2023-04-15T10:36:54.775Z,1010.55
2023-04-15T10:37:54.934Z,1010.59
2023-04-15T10:38:55.113Z,1010.59
2023-04-15T10:39:55.287Z,1010.59
2023-04-15T10:40:55.470Z,1010.47
2023-04-15T10:41:55.679Z,1010.57
2023-04-15T10:42:55.862Z,1010.59
2023-04-15T10:43:56.101Z,1010.57
2023-04-15T10:44:56.227Z,1010.55
2023-04-15T10:45:56.421Z,1010.50
2023-04-15T10:46:56.697Z,1010.51
2023-04-15T10:47:56.878Z,1010.54
2023-04-15T10:48:56.968Z,1010.50
2023-04-15T10:49:57.180Z,1010.47
2023-04-15T10:50:57.347Z,1010.51
2023-04-15T10:51:57.578Z,1010.57
2023-04-15T10:52:57.767Z,1010.59
2023-04-15T10:53:57.965Z,1010.57
2023-04-15T10:54:58.145Z,1010.52
2023-04-15T10:55:58.327Z,1010.54
2023-04-15T10:56:58.526Z,1010.43
2023-04-15T10:57:58.690Z,1010.51
2023-04-15T10:58:58.866Z,1010.50
2023-04-15T10:59:59.075Z,1010.50
2023-04-15T11:00:59.256Z,1010.53
2023-04-15T11:01:59.511Z,1010.49
2023-04-15T11:02:59.780Z,1010.54
2023-04-15T11:03:59.893Z,1010.54
2023-04-15T11:05:00.033Z,1010.56
2023-04-15T11:06:00.166Z,1010.55
2023-04-15T11:07:00.386Z,1010.56
2023-04-15T11:08:00.580Z,1010.53
2023-04-15T11:09:00.769Z,1010.50
2023-04-15T11:10:00.954Z,1010.54
2023-04-15T11:11:01.144Z,1010.58
2023-04-15T11:12:01.351Z,1010.59
2023-04-15T11:13:01.529Z,1010.57
2023-04-15T11:14:01.988Z,1010.55
2023-04-15T11:15:01.914Z,1010.55
2023-04-15T11:16:02.194Z,1010.64
2023-04-15T11:17:02.353Z,1010.58
2023-04-15T11:18:02.566Z,1010.57
2023-04-15T11:19:02.721Z,1010.57
2023-04-15T11:20:02.908Z,1010.58
2023-04-15T11:21:03.101Z,1010.65
2023-04-15T11:22:03.339Z,1010.61
2023-04-15T11:23:14.419Z,1010.64
2023-04-15T11:24:04.090Z,1010.64
2023-04-15T11:25:03.888Z,1010.63
2023-04-15T11:26:04.101Z,1010.59
2023-04-15T11:27:04.339Z,1010.67
2023-04-15T11:28:04.483Z,1010.70
2023-04-15T11:29:04.850Z,1010.62
2023-04-15T11:30:04.910Z,1010.66
2023-04-15T11:31:05.070Z,1010.68
2023-04-15T11:32:05.359Z,1010.66
2023-04-15T11:33:05.448Z,1010.75
2023-04-15T11:34:05.728Z,1010.76
2023-04-15T11:35:05.834Z,1010.72
2023-04-15T11:36:06.030Z,1010.72
2023-04-15T11:37:06.252Z,1010.70
2023-04-15T11:38:06.407Z,1010.71
2023-04-15T11:39:14.091Z,1010.69
2023-04-15T11:40:06.751Z,1010.74
2023-04-15T11:41:06.955Z,1010.73
2023-04-15T11:42:07.238Z,1010.73
2023-04-15T11:43:07.383Z,1010.78
2023-04-15T11:44:07.565Z,1010.73
2023-04-15T11:45:07.785Z,1010.73
2023-04-15T11:46:08.023Z,1010.77
2023-04-15T11:47:08.155Z,1010.80
2023-04-15T11:48:08.324Z,1010.77
2023-04-15T11:49:08.528Z,1010.76
2023-04-15T11:50:08.740Z,1010.76
2023-04-15T11:51:08.935Z,1010.79
2023-04-15T11:52:09.156Z,1010.76
2023-04-15T11:53:09.350Z,1010.74
2023-04-15T11:54:09.545Z,1010.73
2023-04-15T11:55:09.724Z,1010.72
2023-04-15T11:56:09.941Z,1010.73
2023-04-15T11:57:10.138Z,1010.68
2023-04-15T11:58:10.341Z,1010.72
2023-04-15T11:59:10.536Z,1010.73
2023-04-15T12:00:10.733Z,1010.77
2023-04-15T12:01:10.956Z,1010.74
2023-04-15T12:02:11.278Z,1010.74
2023-04-15T12:03:11.588Z,1010.72
2023-04-15T12:04:11.791Z,1010.77
2023-04-15T12:05:11.727Z,1010.78
2023-04-15T12:06:11.907Z,1010.73
2023-04-15T12:07:12.109Z,1010.76
2023-04-15T12:08:12.238Z,1010.77